Time;durP1;ratioP1;P1;durP2;ratioP2;P2;SDS_P1;SDS_P2;PMS_P1;PMS_P2;Temp;Humidity;BMP_temperature;BMP_pressure;BME280_temperature;BME280_humidity;BME280_pressure;Samples;Min_cycle;Max_cycle;Signal;HPM_P1;HPM_P2
2023/04/14 00:02:05;;;;;;;52.00;8.40;;;;;;;0.84;100.00;93113.00;4969911;28;20043;-55
2023/04/14 00:04:32;;;;;;;27.33;7.28;;;;;;;0.94;100.00;93106.91;4969564;28;20073;-57
2023/04/14 00:07:00;;;;;;;27.48;7.57;;;;;;;1.10;100.00;93101.25;4969681;28;20057;-55
2023/04/14 00:09:26;;;;;;;18.90;7.33;;;;;;;1.01;100.00;93109.69;4969588;28;20043;-58
2023/04/14 00:11:53;;;;;;;18.42;6.60;;;;;;;0.99;100.00;93111.97;4981265;28;20046;-57
2023/04/14 00:14:20;;;;;;;46.33;8.68;;;;;;;0.87;100.00;93107.63;4990309;28;20186;-58
2023/04/14 00:16:46;;;;;;;17.70;7.43;;;;;;;1.16;100.00;93118.66;4988708;28;20057;-56
2023/04/14 00:19:14;;;;;;;18.63;7.50;;;;;;;1.26;100.00;93122.59;4989400;28;20050;-57
2023/04/14 00:21:41;;;;;;;29.30;8.20;;;;;;;1.30;100.00;93128.78;4988519;28;20115;-60
2023/04/14 00:24:08;;;;;;;25.88;7.40;;;;;;;1.35;100.00;93118.41;4989316;28;20069;-59
2023/04/14 00:26:35;;;;;;;44.28;8.77;;;;;;;1.34;100.00;93124.19;4988822;28;20042;-58
2023/04/14 00:29:01;;;;;;;29.48;7.43;;;;;;;1.29;100.00;93121.81;4988999;28;20092;-58
2023/04/14 00:31:28;;;;;;;67.72;8.45;;;;;;;1.08;100.00;93125.94;4987542;28;20043;-55
2023/04/14 00:33:55;;;;;;;25.30;6.97;;;;;;;1.32;100.00;93124.56;4988815;28;20050;-57
2023/04/14 00:36:22;;;;;;;23.85;7.43;;;;;;;1.39;100.00;93124.63;4989176;28;20498;-58
2023/04/14 00:38:48;;;;;;;80.60;7.57;;;;;;;1.24;100.00;93124.88;4988500;28;20072;-59
2023/04/14 00:41:15;;;;;;;32.05;7.63;;;;;;;1.02;100.00;93143.63;4988962;28;20081;-56
2023/04/14 00:43:42;;;;;;;20.58;6.90;;;;;;;1.11;100.00;93143.34;4988289;28;20055;-55
2023/04/14 00:46:09;;;;;;;77.57;8.50;;;;;;;0.98;100.00;93150.94;4988753;28;20152;-57
2023/04/14 00:48:35;;;;;;;50.88;7.93;;;;;;;1.00;100.00;93144.00;4988406;28;20050;-57
2023/04/14 00:51:03;;;;;;;20.92;6.50;;;;;;;1.07;100.00;93143.31;4988867;28;20514;-61
2023/04/14 00:53:31;;;;;;;21.42;7.25;;;;;;;1.18;100.00;93149.56;4988542;28;20046;-57
2023/04/14 00:55:58;;;;;;;51.50;8.55;;;;;;;1.05;100.00;93155.63;4988581;28;20050;-59
2023/04/14 00:58:25;;;;;;;26.53;12.70;;;;;;;1.09;100.00;93145.63;4988444;28;20054;-55
2023/04/14 01:00:54;;;;;;;24.92;8.52;;;;;;;1.04;100.00;93145.97;4988360;28;20136;-55
2023/04/14 01:03:23;;;;;;;27.02;6.82;;;;;;;0.99;100.00;93150.56;4989182;28;20397;-57
2023/04/14 01:05:50;;;;;;;35.80;6.95;;;;;;;0.78;100.00;93147.69;4987546;28;20790;-58
2023/04/14 01:08:18;;;;;;;63.97;7.97;;;;;;;0.86;100.00;93154.69;4988854;28;20038;-55
2023/04/14 01:10:59;;;;;;;51.30;7.50;;;;;;;0.63;100.00;93151.41;4987735;28;20683;-52
2023/04/14 01:13:32;;;;;;;31.08;7.03;;;;;;;0.71;100.00;93150.31;4988168;28;20041;-58
2023/04/14 01:16:13;;;;;;;59.33;8.32;;;;;;;0.51;100.00;93149.75;4996769;28;20046;-57
2023/04/14 01:19:05;;;;;;;25.70;6.72;;;;;;;0.39;100.00;93158.88;4988185;28;20504;-61
2023/04/14 01:21:39;;;;;;;29.25;6.93;;;;;;;0.56;100.00;93157.50;4988140;28;20050;-58
2023/04/14 01:24:15;;;;;;;14.40;6.50;;;;;;;0.66;100.00;93172.25;4988535;28;20116;-58
2023/04/14 01:26:44;;;;;;;18.00;6.30;;;;;;;0.71;100.00;93167.31;4987718;28;20046;-55
2023/04/14 01:29:34;;;;;;;14.27;6.43;;;;;;;0.73;100.00;93164.22;4988730;28;20394;-58
2023/04/14 01:32:17;;;;;;;17.00;7.57;;;;;;;0.76;100.00;93169.66;4987355;28;20934;-60
2023/04/14 01:34:52;;;;;;;32.13;13.07;;;;;;;0.82;100.00;93172.03;4987980;28;20042;-55
2023/04/14 01:37:29;;;;;;;17.70;7.13;;;;;;;0.84;100.00;93169.72;4988503;28;20046;-60
2023/04/14 01:40:02;;;;;;;15.27;6.28;;;;;;;0.95;100.00;93181.41;4987233;28;20852;-60
2023/04/14 01:42:32;;;;;;;51.00;7.97;;;;;;;1.01;100.00;93179.94;4972433;28;20507;-56
2023/04/14 01:45:05;;;;;;;25.55;6.10;;;;;;;1.11;100.00;93170.34;4968935;28;20049;-59
2023/04/14 01:47:34;;;;;;;17.15;6.00;;;;;;;1.17;100.00;93166.94;4968217;28;20078;-54
2023/04/14 01:50:04;;;;;;;16.67;7.43;;;;;;;1.13;100.00;93176.94;4968530;28;20051;-55
2023/04/14 01:52:31;;;;;;;17.13;6.95;;;;;;;1.12;100.00;93169.19;4968746;28;20042;-57
2023/04/14 01:55:04;;;;;;;14.63;6.55;;;;;;;1.12;100.00;93172.66;4968671;28;20113;-56
2023/04/14 01:57:35;;;;;;;13.05;6.60;;;;;;;1.15;100.00;93165.75;4968483;28;20051;-57
2023/04/14 02:00:03;;;;;;;13.35;5.82;;;;;;;1.01;100.00;93166.41;4967355;28;20078;-57
2023/04/14 02:02:33;;;;;;;13.43;5.30;;;;;;;0.88;100.00;93165.91;4968100;28;20046;-55
2023/04/14 02:05:02;;;;;;;12.63;5.60;;;;;;;0.73;100.00;93165.00;4968406;28;20403;-57
2023/04/14 02:07:32;;;;;;;12.95;5.95;;;;;;;0.75;100.00;93162.72;4968064;28;20120;-58
2023/04/14 02:10:00;;;;;;;12.55;5.65;;;;;;;0.54;100.00;93168.69;4968255;28;20051;-56
2023/04/14 02:12:29;;;;;;;13.48;5.95;;;;;;;0.50;100.00;93167.06;4968320;28;20043;-57
2023/04/14 02:14:59;;;;;;;16.03;6.10;;;;;;;0.43;100.00;93159.69;4968480;28;20051;-57
2023/04/14 02:17:27;;;;;;;13.50;5.30;;;;;;;0.62;100.00;93157.94;4968339;28;20042;-55
2023/04/14 02:19:54;;;;;;;13.90;6.18;;;;;;;0.68;100.00;93153.75;4968113;28;20071;-55
2023/04/14 02:22:21;;;;;;;13.00;5.60;;;;;;;0.73;100.00;93156.13;4967169;28;20109;-57
2023/04/14 02:24:48;;;;;;;14.85;6.28;;;;;;;0.85;100.00;93152.38;4967433;28;20057;-59
2023/04/14 02:27:21;;;;;;;12.23;5.40;;;;;;;0.93;100.00;93160.16;4971239;28;20410;-57
2023/04/14 02:29:52;;;;;;;12.88;5.72;;;;;;;0.97;100.00;93158.28;4970808;28;20242;-55
2023/04/14 02:32:23;;;;;;;11.50;5.30;;;;;;;0.91;100.00;93157.06;4972243;28;20073;-58
2023/04/14 02:34:54;;;;;;;19.45;10.10;;;;;;;0.80;100.00;93156.19;4970814;28;20768;-59
2023/04/14 02:37:26;;;;;;;14.50;7.47;;;;;;;0.77;100.00;93157.72;4971937;28;20060;-56
2023/04/14 02:40:02;;;;;;;14.23;6.27;;;;;;;0.72;100.00;93157.25;4970611;28;21759;-57
2023/04/14 02:42:30;;;;;;;12.70;6.20;;;;;;;0.73;100.00;93148.03;4987054;28;20042;-55
2023/04/14 02:45:02;;;;;;;13.48;6.00;;;;;;;0.73;100.00;93153.44;4990992;28;20384;-54
2023/04/14 02:47:33;;;;;;;12.73;6.03;;;;;;;0.76;100.00;93158.06;4990741;28;20495;-58
2023/04/14 02:50:02;;;;;;;12.65;5.80;;;;;;;0.71;100.00;93153.78;4990924;28;20399;-54
2023/04/14 02:52:32;;;;;;;12.70;5.53;;;;;;;0.74;100.00;93158.44;4990749;28;20045;-58
2023/04/14 02:55:01;;;;;;;12.18;5.43;;;;;;;0.71;100.00;93161.13;4990828;28;20042;-56
2023/04/14 02:57:29;;;;;;;11.40;5.43;;;;;;;0.65;100.00;93166.09;4990767;28;20104;-58
2023/04/14 02:59:57;;;;;;;12.82;5.47;;;;;;;0.66;100.00;93158.75;4990832;28;20057;-55
2023/04/14 03:02:25;;;;;;;10.93;4.88;;;;;;;0.66;100.00;93164.16;4990294;28;20038;-58
2023/04/14 03:04:52;;;;;;;12.37;4.90;;;;;;;0.59;100.00;93162.94;4990608;28;20559;-59
2023/04/14 03:07:20;;;;;;;11.43;4.90;;;;;;;0.57;100.00;93167.16;4990669;28;20395;-60
2023/04/14 03:09:50;;;;;;;11.35;4.80;;;;;;;0.51;100.00;93157.84;4989826;28;20046;-64
2023/04/14 03:12:18;;;;;;;11.77;4.60;;;;;;;0.50;100.00;93153.56;4990727;28;20046;-58
2023/04/14 03:14:47;;;;;;;10.95;4.70;;;;;;;0.51;100.00;93149.75;4990231;28;20046;-58
2023/04/14 03:17:16;;;;;;;9.97;4.43;;;;;;;0.54;100.00;93155.19;4990539;28;20054;-57
2023/04/14 03:19:46;;;;;;;10.57;4.32;;;;;;;0.55;100.00;93150.56;4990291;28;22699;-57
2023/04/14 03:22:16;;;;;;;12.32;4.82;;;;;;;0.49;100.00;93141.25;4990444;28;20046;-55
2023/04/14 03:24:43;;;;;;;12.07;4.43;;;;;;;0.43;100.00;93146.19;4989990;28;20068;-56
2023/04/14 03:27:17;;;;;;;10.90;4.80;;;;;;;0.48;100.00;93153.94;4990148;28;20050;-55
2023/04/14 03:29:50;;;;;;;10.70;4.33;;;;;;;0.45;100.00;93151.22;4989982;28;20409;-55
2023/04/14 03:32:18;;;;;;;11.10;4.75;;;;;;;0.37;100.00;93150.38;4990541;28;20034;-55
2023/04/14 03:34:49;;;;;;;12.32;4.72;;;;;;;0.41;100.00;93150.41;4989760;28;20090;-57
2023/04/14 03:37:19;;;;;;;11.40;4.20;;;;;;;0.41;100.00;93155.81;4989935;28;20054;-58
2023/04/14 03:39:49;;;;;;;12.85;4.70;;;;;;;0.34;100.00;93151.09;4989780;28;20043;-57
2023/04/14 03:42:19;;;;;;;14.10;4.57;;;;;;;0.39;100.00;93146.16;4989845;28;20053;-58
2023/04/14 03:44:52;;;;;;;14.02;5.05;;;;;;;0.30;100.00;93153.78;4990420;28;20047;-56
2023/04/14 03:47:22;;;;;;;11.60;4.55;;;;;;;0.31;100.00;93144.53;4990101;28;20046;-58
2023/04/14 03:49:55;;;;;;;10.85;4.47;;;;;;;0.33;100.00;93150.31;4989247;28;20607;-64
2023/04/14 03:52:23;;;;;;;11.90;4.93;;;;;;;0.19;100.00;93159.03;4990017;28;20399;-54
2023/04/14 03:54:53;;;;;;;14.23;5.80;;;;;;;0.14;100.00;93162.09;4988450;28;20627;-64
2023/04/14 03:57:22;;;;;;;12.15;5.15;;;;;;;0.16;100.00;93157.09;4989819;28;20069;-55
2023/04/14 03:59:50;;;;;;;10.25;5.47;;;;;;;0.09;100.00;93161.63;4988840;28;21901;-54
2023/04/14 04:02:18;;;;;;;15.13;5.05;;;;;;;0.07;100.00;93161.97;5000710;28;20042;-56
2023/04/14 04:04:45;;;;;;;14.05;5.47;;;;;;;0.14;100.00;93162.09;4989279;28;20069;-57
2023/04/14 04:07:12;;;;;;;17.37;8.67;;;;;;;0.15;100.00;93163.63;4989287;28;20044;-55
2023/04/14 04:09:41;;;;;;;13.95;6.50;;;;;;;0.04;100.00;93170.81;4988693;28;20061;-60
2023/04/14 04:12:10;;;;;;;17.83;6.50;;;;;;;0.08;100.00;93162.75;4989145;28;20050;-55
2023/04/14 04:14:39;;;;;;;15.77;6.40;;;;;;;0.09;100.00;93169.72;4987604;28;20440;-59
2023/04/14 04:17:07;;;;;;;19.85;9.57;;;;;;;0.04;100.00;93175.41;4989205;28;20042;-56
2023/04/14 04:19:35;;;;;;;15.03;6.77;;;;;;;0.03;100.00;93176.59;4987677;28;20042;-61
2023/04/14 04:22:03;;;;;;;12.52;5.50;;;;;;;-0.04;100.00;93171.84;4988876;28;20107;-59
2023/04/14 04:24:36;;;;;;;10.55;4.85;;;;;;;0.03;100.00;93177.34;4988731;28;20094;-57
2023/04/14 04:27:04;;;;;;;13.35;5.05;;;;;;;0.09;100.00;93177.81;4988999;28;20043;-55
2023/04/14 04:29:36;;;;;;;12.73;4.53;;;;;;;0.09;100.00;93177.81;4988696;28;20149;-60
2023/04/14 04:32:05;;;;;;;11.10;4.97;;;;;;;0.11;100.00;93181.69;4988888;28;20064;-60
2023/04/14 04:34:32;;;;;;;11.40;5.10;;;;;;;0.09;100.00;93172.41;4988699;28;20046;-57
2023/04/14 04:37:00;;;;;;;14.38;5.82;;;;;;;0.05;100.00;93188.56;4988730;28;20078;-59
2023/04/14 04:39:28;;;;;;;15.45;6.05;;;;;;;-0.06;100.00;93188.44;4987205;28;20030;-59
2023/04/14 04:42:05;;;;;;;13.10;6.15;;;;;;;-0.04;100.00;93191.53;4977637;28;20051;-61
2023/04/14 04:44:33;;;;;;;15.30;6.50;;;;;;;-0.03;100.00;93187.69;4969113;28;20484;-55
2023/04/14 04:47:00;;;;;;;16.98;6.65;;;;;;;0.02;100.00;93193.91;4969036;28;20108;-55
2023/04/14 04:49:28;;;;;;;17.17;6.80;;;;;;;0.05;100.00;93199.34;4967045;28;20082;-55
2023/04/14 04:51:55;;;;;;;14.98;6.60;;;;;;;0.06;100.00;93195.50;4967656;28;20043;-58
2023/04/14 04:54:22;;;;;;;15.30;6.38;;;;;;;-0.11;100.00;93210.31;4969277;28;20503;-55
2023/04/14 04:56:49;;;;;;;14.63;7.47;;;;;;;0.06;100.00;93200.91;4968437;28;20865;-54
2023/04/14 04:59:16;;;;;;;18.33;8.07;;;;;;;0.05;100.00;93191.25;4968957;28;20675;-57
2023/04/14 05:01:43;;;;;;;18.92;8.40;;;;;;;0.10;100.00;93195.53;4981194;28;20038;-58
2023/04/14 05:04:10;;;;;;;18.45;7.80;;;;;;;0.13;100.00;93192.88;4989197;28;20044;-59
2023/04/14 05:06:37;;;;;;;19.40;9.02;;;;;;;0.19;100.00;93193.34;4988200;28;20042;-54
2023/04/14 05:09:04;;;;;;;19.67;8.67;;;;;;;0.21;100.00;93188.34;4988329;28;20434;-57
2023/04/14 05:11:35;;;;;;;25.75;10.25;;;;;;;0.18;100.00;93192.56;4987223;28;20046;-60
2023/04/14 05:14:02;;;;;;;26.98;11.15;;;;;;;0.18;100.00;93197.19;4987879;28;20042;-58
2023/04/14 05:16:28;;;;;;;25.02;10.70;;;;;;;0.23;100.00;93196.88;4987943;28;20038;-57
2023/04/14 05:18:55;;;;;;;28.08;12.45;;;;;;;0.36;100.00;93194.69;4987911;28;20586;-63
2023/04/14 05:21:22;;;;;;;26.67;11.00;;;;;;;0.38;100.00;93195.09;4987072;28;20050;-58
2023/04/14 05:23:49;;;;;;;27.48;11.27;;;;;;;0.46;100.00;93193.25;4987570;28;20434;-58
2023/04/14 05:26:16;;;;;;;19.70;9.00;;;;;;;0.35;100.00;93201.25;4988007;28;20068;-55
2023/04/14 05:28:45;;;;;;;21.15;7.22;;;;;;;0.52;100.00;93203.34;4987848;28;20046;-58
2023/04/14 05:31:12;;;;;;;17.92;8.23;;;;;;;0.62;100.00;93204.63;4987958;28;20046;-57
2023/04/14 05:33:39;;;;;;;23.33;10.53;;;;;;;0.63;100.00;93206.19;4987627;28;20046;-59
2023/04/14 05:36:06;;;;;;;28.83;11.25;;;;;;;0.74;100.00;93201.66;4984157;28;20474;-60
2023/04/14 05:38:38;;;;;;;26.95;11.80;;;;;;;0.83;100.00;93195.19;4973418;28;20047;-59
2023/04/14 05:41:06;;;;;;;25.83;11.98;;;;;;;0.76;100.00;93198.59;4972896;28;20048;-55
2023/04/14 05:43:33;;;;;;;17.10;8.32;;;;;;;0.58;100.00;93207.31;4987874;28;20342;-60
2023/04/14 05:46:00;;;;;;;15.63;7.40;;;;;;;0.79;100.00;93209.44;4988008;28;20081;-57
2023/04/14 05:48:29;;;;;;;13.93;7.22;;;;;;;0.76;100.00;93210.16;4987720;28;20050;-59
2023/04/14 05:50:56;;;;;;;14.75;6.63;;;;;;;0.76;100.00;93214.78;4986673;28;20035;-63
2023/04/14 05:53:24;;;;;;;14.85;5.72;;;;;;;0.91;100.00;93207.63;4987926;28;20431;-59
2023/04/14 05:55:51;;;;;;;16.55;6.63;;;;;;;1.07;100.00;93210.84;4988163;28;20453;-60
2023/04/14 05:58:18;;;;;;;14.93;7.00;;;;;;;1.23;100.00;93213.31;4988039;28;20050;-55
2023/04/14 06:00:45;;;;;;;20.10;6.90;;;;;;;1.31;100.00;93219.53;4988575;28;20438;-58
2023/04/14 06:03:12;;;;;;;14.15;6.00;;;;;;;1.39;100.00;93223.88;4987915;28;20039;-57
2023/04/14 06:05:39;;;;;;;13.23;5.50;;;;;;;1.63;100.00;93216.31;4970545;28;20058;-59
2023/04/14 06:08:06;;;;;;;15.48;6.10;;;;;;;1.66;100.00;93221.75;4971862;28;20064;-59
2023/04/14 06:10:34;;;;;;;13.03;5.23;;;;;;;1.74;100.00;93217.16;4971521;28;20043;-58
2023/04/14 06:13:01;;;;;;;17.90;5.78;;;;;;;1.90;100.00;93223.06;4970957;28;20061;-58
2023/04/14 06:15:28;;;;;;;14.23;6.20;;;;;;;2.10;100.00;93225.50;4972070;28;20047;-58
2023/04/14 06:17:55;;;;;;;11.70;4.95;;;;;;;2.16;100.00;93216.63;4971109;28;20486;-58
2023/04/14 06:20:22;;;;;;;15.30;5.93;;;;;;;2.10;100.00;93217.38;4972012;28;20051;-60
2023/04/14 06:22:48;;;;;;;12.90;5.07;;;;;;;2.19;100.00;93215.88;4970177;28;20607;-59
2023/04/14 06:25:15;;;;;;;13.98;5.20;;;;;;;2.43;100.00;93204.75;4971942;28;20045;-59
2023/04/14 06:27:42;;;;;;;11.10;4.72;;;;;;;2.52;100.00;93214.09;4971434;28;20043;-60
2023/04/14 06:30:09;;;;;;;11.93;4.05;;;;;;;2.47;100.00;93203.59;4970502;28;20039;-55
2023/04/14 06:32:36;;;;;;;10.43;3.70;;;;;;;2.64;100.00;93204.84;4970254;28;20046;-57
2023/04/14 06:35:03;;;;;;;11.43;3.27;;;;;;;2.74;100.00;93197.91;4971721;28;20077;-59
2023/04/14 06:37:31;;;;;;;9.80;3.05;;;;;;;4.57;100.00;93203.19;4971389;28;20054;-60
2023/04/14 06:39:57;;;;;;;7.63;2.90;;;;;;;6.82;100.00;93186.16;4971921;28;20516;-60
2023/04/14 06:42:24;;;;;;;9.45;2.88;;;;;;;7.46;100.00;93189.94;4985968;28;20726;-58
2023/04/14 06:44:51;;;;;;;7.32;2.80;;;;;;;9.59;99.95;93182.78;4991209;28;20329;-57
2023/04/14 06:47:19;;;;;;;11.27;2.60;;;;;;;9.95;82.19;93190.13;4990755;28;20092;-57
2023/04/14 06:49:46;;;;;;;7.65;2.70;;;;;;;11.19;75.39;93175.50;4990572;28;20042;-57
2023/04/14 06:52:13;;;;;;;7.65;2.60;;;;;;;9.74;78.71;93179.72;4990713;28;20048;-58
2023/04/14 06:54:41;;;;;;;7.97;2.97;;;;;;;9.46;80.24;93170.97;5004585;28;20415;-58
2023/04/14 06:57:08;;;;;;;9.10;3.05;;;;;;;11.68;68.99;93163.41;4991038;28;20042;-58
2023/04/14 06:59:35;;;;;;;7.27;2.73;;;;;;;9.70;69.77;93166.09;4990558;28;20050;-59
2023/04/14 07:02:02;;;;;;;6.95;2.70;;;;;;;10.58;77.06;93163.47;4990925;28;20053;-59
2023/04/14 07:04:29;;;;;;;7.75;2.65;;;;;;;13.07;61.28;93168.16;5003092;28;20042;-57
2023/04/14 07:07:00;;;;;;;9.27;2.70;;;;;;;15.28;55.13;93157.59;4990910;28;20108;-58
2023/04/14 07:09:28;;;;;;;7.20;2.85;;;;;;;16.14;48.77;93150.06;4990402;28;20103;-57
2023/04/14 07:11:56;;;;;;;9.93;2.90;;;;;;;17.96;46.20;93150.13;4990199;28;20038;-57
2023/04/14 07:14:23;;;;;;;10.85;2.40;;;;;;;15.11;44.36;93148.88;4990862;28;20046;-57
2023/04/14 07:16:50;;;;;;;10.65;2.80;;;;;;;16.31;43.14;93134.53;4989828;28;20046;-57
2023/04/14 07:19:18;;;;;;;6.20;2.20;;;;;;;14.12;45.41;93147.16;4990381;28;20096;-57
2023/04/14 07:21:45;;;;;;;12.10;2.47;;;;;;;13.61;48.12;93141.34;4990263;28;20072;-59
2023/04/14 07:24:12;;;;;;;5.63;1.90;;;;;;;15.41;43.36;93138.03;4990466;28;20040;-58
2023/04/14 07:26:43;;;;;;;8.25;2.17;;;;;;;17.38;39.74;93141.34;4990082;28;20042;-58
2023/04/14 07:29:09;;;;;;;7.93;1.90;;;;;;;14.96;44.09;93143.22;4990393;28;20450;-58
2023/04/14 07:31:37;;;;;;;10.82;2.50;;;;;;;13.44;46.12;93147.13;4989981;28;20046;-58
2023/04/14 07:34:05;;;;;;;8.10;2.40;;;;;;;15.21;45.02;93140.56;4990009;28;20046;-59
2023/04/14 07:36:32;;;;;;;9.67;2.40;;;;;;;15.27;45.11;93141.47;5002392;28;20050;-59
2023/04/14 07:38:59;;;;;;;8.38;2.28;;;;;;;17.48;40.70;93133.69;4990293;28;20414;-57
2023/04/14 07:41:26;;;;;;;6.25;2.35;;;;;;;16.33;41.75;93134.84;4982432;28;20047;-58
2023/04/14 07:43:57;;;;;;;6.50;2.63;;;;;;;16.18;40.78;93134.78;4970971;28;20057;-58
2023/04/14 07:46:26;;;;;;;12.23;3.15;;;;;;;15.40;41.54;93128.22;4969890;28;20053;-58
2023/04/14 07:48:53;;;;;;;8.07;2.43;;;;;;;15.46;42.80;93126.34;4969927;28;20476;-58
2023/04/14 07:51:20;;;;;;;7.35;2.30;;;;;;;15.58;38.74;93130.16;4970419;28;20064;-58
2023/04/14 07:53:47;;;;;;;9.75;2.30;;;;;;;17.26;39.19;93120.22;4970285;28;20201;-59
2023/04/14 07:56:14;;;;;;;8.63;2.20;;;;;;;17.60;36.87;93127.09;4985001;28;20050;-58
2023/04/14 07:58:40;;;;;;;4.93;2.10;;;;;;;19.32;35.28;93130.31;4970160;28;20460;-58
2023/04/14 08:01:07;;;;;;;6.60;2.20;;;;;;;19.94;33.85;93122.47;4970350;28;20049;-57
2023/04/14 08:03:36;;;;;;;7.43;1.98;;;;;;;19.33;33.63;93118.66;4968545;28;20068;-57
2023/04/14 08:06:05;;;;;;;7.22;1.95;;;;;;;18.48;33.90;93116.22;4970435;28;20042;-58
2023/04/14 08:08:33;;;;;;;14.18;2.50;;;;;;;15.63;37.19;93115.66;4969784;28;20057;-58
2023/04/14 08:11:00;;;;;;;6.63;2.05;;;;;;;19.82;34.32;93118.88;4969912;28;20043;-57
2023/04/14 08:13:26;;;;;;;7.07;1.97;;;;;;;21.74;30.32;93114.75;4969297;28;20471;-57
2023/04/14 08:15:53;;;;;;;5.88;1.85;;;;;;;21.92;29.78;93118.31;4969972;28;20041;-58
2023/04/14 08:18:20;;;;;;;5.38;1.65;;;;;;;22.94;27.21;93119.59;4970005;28;20065;-60
2023/04/14 08:20:48;;;;;;;5.57;1.77;;;;;;;21.05;27.64;93120.00;4969760;28;20066;-58
2023/04/14 08:23:15;;;;;;;6.85;2.08;;;;;;;20.60;28.11;93115.00;4969005;28;20049;-58
2023/04/14 08:25:43;;;;;;;4.80;1.67;;;;;;;17.74;32.45;93120.75;4969462;28;20049;-57
2023/04/14 08:28:10;;;;;;;5.47;1.80;;;;;;;20.38;30.46;93126.03;4969452;28;20415;-57
2023/04/14 08:30:37;;;;;;;5.47;2.00;;;;;;;19.87;29.62;93122.94;4969672;28;20042;-58
2023/04/14 08:33:03;;;;;;;6.82;1.80;;;;;;;19.96;30.62;93119.97;4969822;28;20461;-59
2023/04/14 08:35:30;;;;;;;10.52;1.65;;;;;;;21.22;27.10;93123.56;4967926;28;20104;-58
2023/04/14 08:38:07;;;;;;;34.00;4.80;;;;;;;19.85;29.80;93128.25;4969590;28;20039;-59
2023/04/14 08:40:43;;;;;;;5.15;2.00;;;;;;;20.00;28.71;93128.06;4969320;28;20407;-57
2023/04/14 08:43:10;;;;;;;13.85;2.30;;;;;;;20.55;28.96;93135.25;4989087;28;20046;-57
2023/04/14 08:45:40;;;;;;;7.68;2.15;;;;;;;20.42;29.19;93129.34;4988778;28;20042;-58
2023/04/14 08:48:10;;;;;;;7.32;2.30;;;;;;;20.88;29.33;93126.28;4988737;28;20057;-63
2023/04/14 08:50:47;;;;;;;6.67;1.70;;;;;;;22.08;27.21;93125.91;4988411;28;20076;-58
2023/04/14 08:53:15;;;;;;;5.95;2.00;;;;;;;21.57;26.62;93133.56;4988756;28;20099;-58
2023/04/14 08:55:42;;;;;;;5.93;1.80;;;;;;;23.67;24.64;93126.81;4988327;28;20061;-57
2023/04/14 08:58:10;;;;;;;4.65;1.90;;;;;;;21.62;26.77;93132.78;4988662;28;20338;-57
2023/04/14 09:00:38;;;;;;;5.53;1.73;;;;;;;21.47;26.39;93123.88;4988379;28;20039;-59
2023/04/14 09:03:07;;;;;;;7.37;1.63;;;;;;;21.39;25.50;93125.63;4988856;28;20038;-57
2023/04/14 09:05:35;;;;;;;7.43;2.30;;;;;;;21.06;25.91;93119.47;4988026;28;20042;-57
2023/04/14 09:08:03;;;;;;;5.55;1.80;;;;;;;14.73;33.48;93127.28;4988623;28;20046;-57
2023/04/14 09:10:30;;;;;;;6.28;2.10;;;;;;;16.82;31.67;93129.28;4986090;28;20054;-59
2023/04/14 09:13:01;;;;;;;5.20;1.90;;;;;;;21.04;27.73;93132.41;4988540;28;20323;-58
2023/04/14 09:15:29;;;;;;;6.23;1.50;;;;;;;21.92;25.50;93121.13;4988086;28;20044;-58
2023/04/14 09:17:56;;;;;;;5.03;1.70;;;;;;;23.24;24.41;93118.19;4988619;28;20494;-57
2023/04/14 09:20:23;;;;;;;6.82;1.90;;;;;;;14.95;34.27;93124.31;4988248;28;20085;-59
2023/04/14 09:23:08;;;;;;;12.48;1.83;;;;;;;20.76;26.51;93116.34;4987987;28;20609;-58
2023/04/14 09:25:38;;;;;;;13.23;1.70;;;;;;;22.57;24.70;93120.00;4988034;28;20050;-57
2023/04/14 09:28:05;;;;;;;13.53;2.20;;;;;;;24.88;23.45;93111.94;4988259;28;20522;-58
2023/04/14 09:30:32;;;;;;;5.68;1.60;;;;;;;25.00;22.04;93106.94;4987826;28;20038;-60
2023/04/14 09:33:06;;;;;;;13.57;2.13;;;;;;;26.72;20.24;93111.69;4988268;28;20042;-59
2023/04/14 09:35:46;;;;;;;5.65;1.58;;;;;;;21.83;24.85;93112.97;4989893;28;20045;-57
2023/04/14 09:38:13;;;;;;;5.10;1.90;;;;;;;24.54;22.94;93108.78;4992467;28;20060;-58
2023/04/14 09:40:41;;;;;;;4.73;1.63;;;;;;;22.53;24.80;93103.47;4990948;28;20053;-57
2023/04/14 09:43:22;;;;;;;5.68;1.80;;;;;;;22.52;24.50;93098.41;4973039;28;20049;-57
2023/04/14 09:45:49;;;;;;;12.52;2.30;;;;;;;24.24;23.55;93092.72;4972258;28;20603;-59
2023/04/14 09:48:17;;;;;;;5.28;1.67;;;;;;;24.68;20.83;93087.94;4972615;28;20046;-58
2023/04/14 09:51:02;;;;;;;5.15;1.55;;;;;;;22.33;22.73;93101.78;4987238;28;20415;-58
2023/04/14 09:53:30;;;;;;;14.53;4.57;;;;;;;23.05;22.99;93095.66;4972143;28;20051;-58
2023/04/14 09:56:01;;;;;;;6.00;1.70;;;;;;;21.81;21.34;93104.34;4972532;28;20418;-57
2023/04/14 09:58:37;;;;;;;8.70;1.80;;;;;;;23.38;20.71;93105.13;4972024;28;20382;-57
2023/04/14 10:01:09;;;;;;;4.45;1.58;;;;;;;24.79;19.83;93092.66;4971424;28;20066;-59
2023/04/14 10:03:41;;;;;;;6.53;1.70;;;;;;;21.34;23.92;93090.88;4972335;28;20059;-58
2023/04/14 10:06:14;;;;;;;4.33;1.80;;;;;;;21.80;23.19;93098.00;4972795;28;20047;-59
2023/04/14 10:08:45;;;;;;;6.28;1.80;;;;;;;25.04;18.91;93090.56;4970869;28;20038;-57
2023/04/14 10:11:36;;;;;;;4.95;1.50;;;;;;;27.55;16.28;93084.38;4971922;28;20411;-59
2023/04/14 10:14:05;;;;;;;4.47;1.50;;;;;;;27.92;16.28;93080.44;4970329;28;20512;-59
2023/04/14 10:16:32;;;;;;;4.18;1.48;;;;;;;28.77;16.24;93084.66;4970373;28;20421;-60
2023/04/14 10:19:00;;;;;;;3.27;1.60;;;;;;;26.45;17.45;93085.56;4972597;28;20091;-59
2023/04/14 10:21:28;;;;;;;4.00;1.45;;;;;;;27.67;16.70;93085.63;4971634;28;20053;-59
2023/04/14 10:23:56;;;;;;;5.20;1.75;;;;;;;24.88;18.99;93086.69;4972623;28;20038;-58
2023/04/14 10:26:23;;;;;;;5.22;2.00;;;;;;;21.27;22.16;93080.19;4972154;28;20049;-57
2023/04/14 10:28:53;;;;;;;7.82;4.25;;;;;;;16.56;28.41;93079.91;4969871;28;20096;-57
2023/04/14 10:31:25;;;;;;;9.60;5.00;;;;;;;15.93;30.45;93079.91;4971935;28;20073;-57
2023/04/14 10:33:53;;;;;;;7.65;2.30;;;;;;;18.50;26.96;93070.03;4971096;28;20917;-57
2023/04/14 10:36:27;;;;;;;10.80;6.88;;;;;;;18.73;26.27;93059.94;4971744;28;20039;-57
2023/04/14 10:39:00;;;;;;;4.82;2.20;;;;;;;18.51;26.70;93057.69;4971040;28;20678;-59
2023/04/14 10:41:47;;;;;;;4.13;1.60;;;;;;;17.12;28.34;93058.78;4978600;28;20099;-56
2023/04/14 10:44:34;;;;;;;3.93;1.73;;;;;;;15.61;30.03;93060.06;4991214;28;20076;-56
2023/04/14 10:47:03;;;;;;;4.55;1.80;;;;;;;15.25;29.59;93059.03;4989694;28;21731;-57
2023/04/14 10:49:32;;;;;;;4.35;1.42;;;;;;;13.97;31.12;93060.69;4990417;28;20045;-56
2023/04/14 10:52:24;;;;;;;3.78;1.60;;;;;;;15.01;30.07;93055.41;4991366;28;20046;-56
2023/04/14 10:55:00;;;;;;;3.17;1.50;;;;;;;14.72;30.03;93049.19;4989933;28;21575;-57
2023/04/14 10:57:28;;;;;;;5.93;2.70;;;;;;;14.68;30.04;93048.56;5002024;28;20088;-54
2023/04/14 10:59:59;;;;;;;6.22;2.10;;;;;;;15.06;30.30;93043.72;4991010;28;20047;-58
2023/04/14 11:02:30;;;;;;;3.75;1.60;;;;;;;18.14;26.44;93029.72;4990612;28;20038;-57
2023/04/14 11:05:01;;;;;;;3.83;1.48;;;;;;;19.13;24.46;93032.53;4990703;28;20484;-59
2023/04/14 11:07:30;;;;;;;4.80;1.70;;;;;;;19.27;23.80;93028.09;4990208;28;20054;-57
2023/04/14 11:10:15;;;;;;;4.63;1.60;;;;;;;20.99;23.19;93032.72;4990539;28;20038;-57
2023/04/14 11:12:44;;;;;;;3.55;1.30;;;;;;;20.53;22.25;93029.81;4990542;28;20060;-57
2023/04/14 11:15:11;;;;;;;3.70;1.67;;;;;;;15.61;26.92;93023.34;4990717;28;20057;-57
2023/04/14 11:17:39;;;;;;;3.47;1.60;;;;;;;16.20;29.07;93026.38;4990261;28;20046;-58
2023/04/14 11:20:20;;;;;;;4.28;1.60;;;;;;;15.33;29.42;93020.72;4990720;28;20048;-59
2023/04/14 11:22:51;;;;;;;4.97;1.40;;;;;;;14.89;30.35;93019.22;4990357;28;20046;-56
2023/04/14 11:25:19;;;;;;;8.57;1.80;;;;;;;15.74;32.08;93007.34;4990329;28;20047;-57
2023/04/14 11:27:50;;;;;;;3.88;1.40;;;;;;;16.55;31.67;93009.13;4989390;28;21547;-58
2023/04/14 11:30:19;;;;;;;5.50;1.60;;;;;;;15.41;33.08;93018.38;4990265;28;20049;-58
2023/04/14 11:32:52;;;;;;;3.38;1.50;;;;;;;15.01;32.56;93017.50;4990008;28;20046;-57
2023/04/14 11:35:22;;;;;;;6.43;3.10;;;;;;;14.78;32.12;93014.19;4990270;28;20034;-58
2023/04/14 11:37:53;;;;;;;5.82;2.35;;;;;;;13.94;33.44;93020.22;4989119;28;20604;-58